createdAt,value
2023-03-26T00:01:41.354Z,60.26
2023-03-26T00:04:09.480Z,59.37
2023-03-26T00:06:40.091Z,59.34
2023-03-26T00:09:13.563Z,59.04
2023-03-26T00:11:43.468Z,58.76
2023-03-26T00:14:14.203Z,56.78
2023-03-26T00:16:42.930Z,55.61
2023-03-26T00:19:12.770Z,54.88
2023-03-26T00:21:41.618Z,55.44
2023-03-26T00:24:15.290Z,54.42
2023-03-26T00:26:45.046Z,54.59
2023-03-26T00:29:15.748Z,54.44
2023-03-26T00:31:46.366Z,53.60
2023-03-26T00:34:18.826Z,54.02
2023-03-26T00:36:47.489Z,54.23
2023-03-26T00:39:18.071Z,54.90
2023-03-26T00:41:46.228Z,55.07
2023-03-26T00:44:14.467Z,55.28
2023-03-26T00:46:42.873Z,55.84
2023-03-26T00:49:11.321Z,56.22
2023-03-26T00:51:39.792Z,56.50
2023-03-26T00:54:09.504Z,56.80
2023-03-26T00:56:38.896Z,57.01
2023-03-26T00:59:09.339Z,57.18
2023-03-26T01:01:38.134Z,57.34
2023-03-26T01:04:27.533Z,57.66
2023-03-26T01:07:01.275Z,57.81
2023-03-26T01:09:36.799Z,58.10
2023-03-26T01:12:08.590Z,58.28
2023-03-26T01:14:38.984Z,58.49
2023-03-26T01:17:09.288Z,58.55
2023-03-26T01:20:15.175Z,58.59
2023-03-26T01:22:50.024Z,58.00
2023-03-26T01:25:19.117Z,57.90
2023-03-26T01:27:50.771Z,58.24
2023-03-26T01:30:37.222Z,57.89
2023-03-26T01:33:30.224Z,58.06
2023-03-26T01:36:23.645Z,58.47
2023-03-26T01:39:08.318Z,58.01
2023-03-26T01:42:03.250Z,58.10
2023-03-26T01:45:07.456Z,58.41
2023-03-26T01:47:38.193Z,58.05
2023-03-26T01:50:08.045Z,58.03
2023-03-26T01:52:36.398Z,58.39
2023-03-26T01:55:06.705Z,58.65
2023-03-26T01:57:52.808Z,58.75
2023-03-26T02:00:28.872Z,59.24
2023-03-26T02:03:19.366Z,59.80
2023-03-26T02:05:53.980Z,59.59
2023-03-26T02:08:41.446Z,59.74
2023-03-26T02:11:13.214Z,59.03
2023-03-26T02:13:44.376Z,58.91
2023-03-26T02:16:16.466Z,58.24
2023-03-26T02:18:47.633Z,58.36
2023-03-26T02:21:21.767Z,58.06
2023-03-26T02:23:57.826Z,58.64
2023-03-26T02:26:26.271Z,58.43
2023-03-26T02:29:02.319Z,58.10
2023-03-26T02:31:30.746Z,58.20
2023-03-26T02:33:59.401Z,58.20
2023-03-26T02:36:28.607Z,57.66
2023-03-26T02:39:00.438Z,57.60
2023-03-26T02:41:30.584Z,57.71
2023-03-26T02:44:02.084Z,57.29
2023-03-26T02:46:48.770Z,57.31
2023-03-26T02:49:35.428Z,56.53
2023-03-26T02:52:06.888Z,56.18
2023-03-26T02:54:37.228Z,55.91
2023-03-26T02:57:20.324Z,56.43
2023-03-26T02:59:52.870Z,56.22
2023-03-26T03:02:39.869Z,55.89
2023-03-26T03:05:26.847Z,55.99
2023-03-26T03:08:13.836Z,55.38
2023-03-26T03:11:04.243Z,54.75
2023-03-26T03:13:40.402Z,55.21
2023-03-26T03:16:09.289Z,56.18
2023-03-26T03:18:37.982Z,56.72
2023-03-26T03:21:07.070Z,57.40
2023-03-26T03:23:35.561Z,57.48
2023-03-26T03:26:21.830Z,58.05
2023-03-26T03:28:52.774Z,58.87
2023-03-26T03:31:21.842Z,58.85
2023-03-26T03:33:50.674Z,58.51
2023-03-26T03:36:22.716Z,58.58
2023-03-26T03:39:02.939Z,58.78
2023-03-26T03:41:31.659Z,58.74
2023-03-26T03:44:01.804Z,58.74
2023-03-26T03:46:32.578Z,58.70
2023-03-26T03:49:01.200Z,58.89
2023-03-26T03:51:36.642Z,59.21
2023-03-26T03:54:10.749Z,59.37
2023-03-26T03:56:49.197Z,59.78
2023-03-26T03:59:17.797Z,60.17
2023-03-26T04:01:50.909Z,60.58
2023-03-26T04:04:34.450Z,61.10
2023-03-26T04:07:07.831Z,60.93
2023-03-26T04:10:07.288Z,60.69
2023-03-26T04:12:54.010Z,60.94
2023-03-26T04:15:33.066Z,61.21
2023-03-26T04:18:01.342Z,61.81
2023-03-26T04:20:30.073Z,62.56
2023-03-26T04:22:58.246Z,63.18
2023-03-26T04:25:30.540Z,63.21
2023-03-26T04:28:09.165Z,62.47
2023-03-26T04:31:00.967Z,61.99
2023-03-26T04:33:42.293Z,61.08
2023-03-26T04:36:11.954Z,60.76
2023-03-26T04:38:43.522Z,60.87
2023-03-26T04:41:13.335Z,59.84
2023-03-26T04:43:54.556Z,56.65
2023-03-26T04:46:37.769Z,54.44
2023-03-26T04:49:12.264Z,50.97
2023-03-26T04:51:46.352Z,48.74
2023-03-26T04:54:33.356Z,45.38
2023-03-26T04:57:29.097Z,44.44
2023-03-26T05:00:18.625Z,42.59
2023-03-26T05:02:54.349Z,40.95
2023-03-26T05:05:23.069Z,40.78
2023-03-26T05:07:51.864Z,40.17
2023-03-26T05:10:21.794Z,40.17
2023-03-26T05:12:54.670Z,39.53
2023-03-26T05:15:32.987Z,38.68
2023-03-26T05:18:14.243Z,38.20
2023-03-26T05:20:46.572Z,37.36
2023-03-26T05:23:14.787Z,36.74
2023-03-26T05:25:47.234Z,36.60
2023-03-26T05:28:24.381Z,35.61
2023-03-26T05:31:08.352Z,34.57
2023-03-26T05:33:39.257Z,34.00
2023-03-26T05:36:15.376Z,33.21
2023-03-26T05:38:54.227Z,32.70
2023-03-26T05:41:52.976Z,31.80
2023-03-26T05:44:22.438Z,30.93
2023-03-26T05:46:51.329Z,29.93
2023-03-26T05:49:22.455Z,29.13
2023-03-26T05:51:50.657Z,28.56
2023-03-26T05:54:36.311Z,28.07
2023-03-26T05:57:24.044Z,28.04
2023-03-26T06:00:12.216Z,28.24
2023-03-26T06:02:47.225Z,28.07
2023-03-26T06:05:32.893Z,28.18
2023-03-26T06:08:19.767Z,27.50
2023-03-26T06:11:02.880Z,26.47
2023-03-26T06:13:35.482Z,25.29
2023-03-26T06:16:04.127Z,24.21
2023-03-26T06:18:35.801Z,23.05
2023-03-26T06:21:29.741Z,22.89
2023-03-26T06:24:03.292Z,23.04
2023-03-26T06:26:47.372Z,22.64
2023-03-26T06:29:38.628Z,22.29
2023-03-26T06:32:19.588Z,21.78
2023-03-26T06:35:03.303Z,22.09
2023-03-26T06:37:31.544Z,21.97
2023-03-26T06:40:02.701Z,21.83
2023-03-26T06:43:10.902Z,21.58
2023-03-26T06:45:57.557Z,21.24
2023-03-26T06:48:44.507Z,21.40
2023-03-26T06:51:29.162Z,20.52
2023-03-26T06:54:09.881Z,20.86
2023-03-26T06:56:54.549Z,20.88
2023-03-26T06:59:43.112Z,20.77
2023-03-26T07:02:30.331Z,20.54
2023-03-26T07:05:17.675Z,20.73
2023-03-26T07:08:04.589Z,20.64
2023-03-26T07:10:51.358Z,20.52
2023-03-26T07:13:19.624Z,20.78
2023-03-26T07:16:17.174Z,21.00
2023-03-26T07:19:04.539Z,21.68
2023-03-26T07:21:37.363Z,22.29
2023-03-26T07:24:15.200Z,21.82
2023-03-26T07:26:58.904Z,22.33
2023-03-26T07:29:48.512Z,22.70
2023-03-26T07:32:36.667Z,22.90
2023-03-26T07:35:47.261Z,23.55
2023-03-26T07:39:03.919Z,24.74
2023-03-26T07:41:51.194Z,26.30
2023-03-26T07:45:10.617Z,27.58
2023-03-26T07:47:50.209Z,28.97
2023-03-26T07:50:27.034Z,30.38
2023-03-26T07:53:10.218Z,30.38
2023-03-26T07:56:11.348Z,29.45
2023-03-26T07:59:06.835Z,29.36
2023-03-26T08:01:55.160Z,29.38
2023-03-26T08:04:53.411Z,28.77
2023-03-26T08:08:18.756Z,28.54
2023-03-26T08:11:28.811Z,27.23
2023-03-26T08:14:28.665Z,26.07
2023-03-26T08:17:22.849Z,25.90
2023-03-26T08:20:06.048Z,25.78
2023-03-26T08:22:39.013Z,25.76
2023-03-26T08:25:19.852Z,25.72
2023-03-26T08:28:17.057Z,25.64
2023-03-26T08:30:47.086Z,26.00
2023-03-26T08:33:19.119Z,25.92
2023-03-26T08:35:50.137Z,25.75
2023-03-26T08:38:20.721Z,25.09
2023-03-26T08:41:01.201Z,25.66
2023-03-26T08:44:07.163Z,26.28
2023-03-26T08:47:02.016Z,25.90
2023-03-26T08:49:45.840Z,25.90
2023-03-26T08:52:22.763Z,25.01
2023-03-26T08:54:57.406Z,24.56
2023-03-26T08:57:50.929Z,24.48
2023-03-26T09:00:41.332Z,25.19
2023-03-26T09:03:21.682Z,24.82
2023-03-26T09:05:55.730Z,24.61
2023-03-26T09:08:38.085Z,25.68
2023-03-26T09:12:16.218Z,24.93
2023-03-26T09:15:02.806Z,24.98
2023-03-26T09:17:57.853Z,26.09
2023-03-26T09:21:00.111Z,27.36
2023-03-26T09:23:46.326Z,26.67
2023-03-26T09:26:47.918Z,26.67
2023-03-26T09:29:53.075Z,26.74
2023-03-26T09:32:36.341Z,27.15
2023-03-26T09:35:18.935Z,27.43
2023-03-26T09:38:22.534Z,27.20
2023-03-26T09:40:58.823Z,27.22
2023-03-26T09:43:49.078Z,28.09
2023-03-26T09:46:52.889Z,28.04
2023-03-26T09:49:56.498Z,29.13
2023-03-26T09:52:55.690Z,29.33
2023-03-26T09:55:42.914Z,28.65
2023-03-26T09:58:48.967Z,28.43
2023-03-26T10:01:18.599Z,28.03
2023-03-26T10:04:16.808Z,27.86
2023-03-26T10:06:54.048Z,28.04
2023-03-26T10:09:43.647Z,28.13
2023-03-26T10:12:42.835Z,28.75
2023-03-26T10:15:23.945Z,28.34
2023-03-26T10:18:04.888Z,28.37
2023-03-26T10:21:04.254Z,27.44
2023-03-26T10:23:54.215Z,26.69
2023-03-26T10:26:28.476Z,27.60
2023-03-26T10:29:14.915Z,27.69
2023-03-26T10:32:44.374Z,28.40
2023-03-26T10:35:31.269Z,27.24
2023-03-26T10:38:15.757Z,26.52
2023-03-26T10:40:51.143Z,28.50
2023-03-26T10:43:36.292Z,28.49
2023-03-26T10:46:42.880Z,28.72
2023-03-26T10:49:33.311Z,28.64
2023-03-26T10:52:08.095Z,28.67
2023-03-26T10:54:56.838Z,29.32
2023-03-26T10:57:54.162Z,29.44
2023-03-26T11:00:26.183Z,29.76
2023-03-26T11:03:15.322Z,29.56
2023-03-26T11:06:03.547Z,28.67
2023-03-26T11:08:32.292Z,29.00
2023-03-26T11:11:26.157Z,29.55
2023-03-26T11:14:01.479Z,30.60
2023-03-26T11:16:45.217Z,31.05
2023-03-26T11:19:31.562Z,31.13
2023-03-26T11:22:09.101Z,30.35
2023-03-26T11:25:00.495Z,28.79
2023-03-26T11:27:56.061Z,28.70
2023-03-26T11:30:38.924Z,28.80
2023-03-26T11:33:12.032Z,28.41
2023-03-26T11:35:51.142Z,28.94
2023-03-26T11:38:28.979Z,28.97
2023-03-26T11:40:59.271Z,28.90
2023-03-26T11:43:49.711Z,28.48
2023-03-26T11:46:21.144Z,27.56
2023-03-26T11:48:59.976Z,27.31
2023-03-26T11:51:33.956Z,27.52
2023-03-26T11:54:03.820Z,27.38
2023-03-26T11:57:04.541Z,27.89
2023-03-26T11:59:55.678Z,27.76
2023-03-26T12:02:29.683Z,27.69
2023-03-26T12:05:22.779Z,27.50
2023-03-26T12:07:59.803Z,27.11
2023-03-26T12:10:31.636Z,27.31
2023-03-26T12:13:23.231Z,26.84
2023-03-26T12:15:51.670Z,25.92
2023-03-26T12:18:28.281Z,26.53
2023-03-26T12:21:08.252Z,27.64
2023-03-26T12:23:43.746Z,28.51
2023-03-26T12:26:20.883Z,28.29
2023-03-26T12:28:51.424Z,28.74
2023-03-26T12:31:19.802Z,28.19
2023-03-26T12:34:06.704Z,27.43
2023-03-26T12:36:39.068Z,26.98
2023-03-26T12:40:07.208Z,27.52
2023-03-26T12:44:49.732Z,26.94
2023-03-26T12:45:43.452Z,26.67
2023-03-26T12:48:15.832Z,27.15
2023-03-26T12:51:17.464Z,27.75
2023-03-26T12:53:45.621Z,28.10
2023-03-26T12:56:21.979Z,28.53
2023-03-26T12:58:55.228Z,28.64
2023-03-26T13:01:52.782Z,28.55
2023-03-26T13:04:26.953Z,28.87
2023-03-26T13:07:04.561Z,29.12
2023-03-26T13:09:42.338Z,29.22
2023-03-26T13:12:34.465Z,29.22
2023-03-26T13:15:15.864Z,29.03
2023-03-26T13:18:03.733Z,29.15
2023-03-26T13:20:48.920Z,28.97
2023-03-26T13:23:35.466Z,28.96
2023-03-26T13:26:22.490Z,29.12
2023-03-26T13:29:17.625Z,29.00
2023-03-26T13:32:09.218Z,28.53
2023-03-26T13:34:38.390Z,28.33
2023-03-26T13:37:06.505Z,28.09
2023-03-26T13:39:50.150Z,28.18
2023-03-26T13:42:59.933Z,28.43
2023-03-26T13:45:39.820Z,28.42
2023-03-26T13:48:16.947Z,28.70
2023-03-26T13:51:01.961Z,28.91
2023-03-26T13:53:40.888Z,29.04
2023-03-26T13:56:13.875Z,28.73
2023-03-26T13:58:50.861Z,28.94
2023-03-26T14:01:43.467Z,28.43
2023-03-26T14:04:34.117Z,28.64
2023-03-26T14:07:25.464Z,29.02
2023-03-26T14:09:57.573Z,29.05
2023-03-26T14:12:49.420Z,28.87
2023-03-26T14:15:29.642Z,28.00
2023-03-26T14:18:41.186Z,28.47
2023-03-26T14:21:46.691Z,29.07
2023-03-26T14:24:26.627Z,29.68
2023-03-26T14:27:07.838Z,29.33
2023-03-26T14:29:56.634Z,29.70
2023-03-26T14:32:44.999Z,29.71
2023-03-26T14:35:47.332Z,30.29
2023-03-26T14:38:33.940Z,30.48
2023-03-26T14:41:24.511Z,30.56
2023-03-26T14:44:15.829Z,29.62
2023-03-26T14:47:02.882Z,30.12
2023-03-26T14:49:43.939Z,30.39
2023-03-26T14:52:31.757Z,30.68
2023-03-26T14:55:05.672Z,30.22
2023-03-26T14:57:52.682Z,30.20
2023-03-26T15:00:48.618Z,30.92
2023-03-26T15:03:38.997Z,31.87
2023-03-26T15:06:25.918Z,32.29
2023-03-26T15:09:21.740Z,32.77
2023-03-26T15:12:12.238Z,33.52
2023-03-26T15:15:10.722Z,34.38
2023-03-26T15:17:38.823Z,35.58
2023-03-26T15:20:27.593Z,36.29
2023-03-26T15:23:05.381Z,36.68
2023-03-26T15:25:52.073Z,36.77
2023-03-26T15:28:57.811Z,36.59
2023-03-26T15:32:03.669Z,36.66
2023-03-26T15:34:34.864Z,36.42
2023-03-26T15:37:12.194Z,35.60
2023-03-26T15:40:08.183Z,34.93
2023-03-26T15:43:00.041Z,34.46
2023-03-26T15:45:36.970Z,33.88
2023-03-26T15:48:14.028Z,33.82
2023-03-26T15:50:56.731Z,34.25
2023-03-26T15:53:41.385Z,34.71
2023-03-26T15:56:43.189Z,35.06
2023-03-26T15:59:15.741Z,35.04
2023-03-26T16:02:17.715Z,35.40
2023-03-26T16:05:03.399Z,35.71
2023-03-26T16:08:09.628Z,35.83
2023-03-26T16:10:58.499Z,36.09
2023-03-26T16:13:49.863Z,36.32
2023-03-26T16:16:22.959Z,36.74
2023-03-26T16:19:18.298Z,37.11
2023-03-26T16:22:00.664Z,37.41
2023-03-26T16:24:33.417Z,37.72
2023-03-26T16:27:29.218Z,37.96
2023-03-26T16:30:01.682Z,38.37
2023-03-26T16:32:35.157Z,38.75
2023-03-26T16:35:15.754Z,38.91
2023-03-26T16:37:52.103Z,38.89
2023-03-26T16:40:27.295Z,39.11
2023-03-26T16:43:24.322Z,39.07
2023-03-26T16:46:11.259Z,39.90
2023-03-26T16:49:15.854Z,40.28
2023-03-26T16:52:02.715Z,40.38
2023-03-26T16:54:39.569Z,40.68
2023-03-26T16:57:29.370Z,40.91
2023-03-26T17:00:13.968Z,41.05
2023-03-26T17:03:17.835Z,41.29
2023-03-26T17:05:58.211Z,41.28
2023-03-26T17:08:38.588Z,41.45
2023-03-26T17:11:15.908Z,41.59
2023-03-26T17:13:49.058Z,42.10
2023-03-26T17:16:27.097Z,42.31
2023-03-26T17:19:19.224Z,42.92
2023-03-26T17:22:13.894Z,43.30
2023-03-26T17:25:32.759Z,43.67
2023-03-26T17:28:28.884Z,43.90
2023-03-26T17:31:15.993Z,43.98
2023-03-26T17:33:44.783Z,44.23
2023-03-26T17:36:12.862Z,44.21
2023-03-26T17:38:44.903Z,44.10
2023-03-26T17:41:35.859Z,44.08
2023-03-26T17:44:47.325Z,43.97
2023-03-26T17:47:23.922Z,44.12
2023-03-26T17:50:00.057Z,44.18
2023-03-26T17:53:01.419Z,43.89
2023-03-26T17:55:33.159Z,44.10
2023-03-26T17:58:04.048Z,43.99
2023-03-26T18:00:35.257Z,43.28
2023-03-26T18:03:17.594Z,43.16
2023-03-26T18:05:47.025Z,42.68
2023-03-26T18:08:15.439Z,42.76
2023-03-26T18:11:02.045Z,43.75
2023-03-26T18:13:47.104Z,43.46
2023-03-26T18:16:39.358Z,44.15
2023-03-26T18:19:19.487Z,44.39
2023-03-26T18:21:50.959Z,44.75
2023-03-26T18:24:37.662Z,45.02
2023-03-26T18:27:07.051Z,44.96
2023-03-26T18:29:36.526Z,45.20
2023-03-26T18:32:09.216Z,45.65
2023-03-26T18:34:45.600Z,45.45
2023-03-26T18:37:30.271Z,45.38
2023-03-26T18:40:15.506Z,45.57
2023-03-26T18:42:46.788Z,45.92
2023-03-26T18:45:24.874Z,46.11
2023-03-26T18:47:58.687Z,45.90
2023-03-26T18:50:30.246Z,45.48
2023-03-26T18:53:00.588Z,45.18
2023-03-26T18:55:30.400Z,45.37
2023-03-26T18:57:58.727Z,45.51
2023-03-26T19:00:30.462Z,45.75
2023-03-26T19:03:08.294Z,45.95
2023-03-26T19:05:37.396Z,45.83
2023-03-26T19:08:06.467Z,45.96
2023-03-26T19:10:34.782Z,45.90
2023-03-26T19:13:04.420Z,45.71
2023-03-26T19:15:36.210Z,45.75
2023-03-26T19:18:09.883Z,46.59
2023-03-26T19:20:42.811Z,46.94
2023-03-26T19:23:20.015Z,46.90
2023-03-26T19:26:01.731Z,46.60
2023-03-26T19:28:49.297Z,46.34
2023-03-26T19:31:39.184Z,45.91
2023-03-26T19:34:17.552Z,45.75
2023-03-26T19:37:04.398Z,46.18
2023-03-26T19:39:42.866Z,46.87
2023-03-26T19:42:17.633Z,46.54
2023-03-26T19:44:46.456Z,46.64
2023-03-26T19:47:39.317Z,46.54
2023-03-26T19:50:15.856Z,46.80
2023-03-26T19:52:45.288Z,46.69
2023-03-26T19:55:24.197Z,47.19
2023-03-26T19:57:52.286Z,47.30
2023-03-26T20:00:20.567Z,48.11
2023-03-26T20:02:49.715Z,49.03
2023-03-26T20:05:27.360Z,48.67
2023-03-26T20:08:00.667Z,48.85
2023-03-26T20:10:29.376Z,48.88
2023-03-26T20:12:58.532Z,48.42
2023-03-26T20:15:29.882Z,48.18
2023-03-26T20:17:58.184Z,48.09
2023-03-26T20:20:27.657Z,47.55
2023-03-26T20:22:55.947Z,48.14
2023-03-26T20:25:30.233Z,47.76
2023-03-26T20:27:59.861Z,48.07
2023-03-26T20:30:37.313Z,47.44
2023-03-26T20:33:12.184Z,47.46
2023-03-26T20:35:42.984Z,47.27
2023-03-26T20:38:12.171Z,47.53
2023-03-26T20:40:41.114Z,47.17
2023-03-26T20:43:12.554Z,47.67
2023-03-26T20:45:41.795Z,47.44
2023-03-26T20:48:13.144Z,48.17
2023-03-26T20:50:50.378Z,48.57
2023-03-26T20:53:20.470Z,48.70
2023-03-26T20:55:51.038Z,48.83
2023-03-26T20:58:31.079Z,49.51
2023-03-26T21:01:02.145Z,49.95
2023-03-26T21:03:30.871Z,49.87
2023-03-26T21:06:01.723Z,50.51
2023-03-26T21:08:36.904Z,51.81
2023-03-26T21:11:15.965Z,52.35
2023-03-26T21:14:03.704Z,52.37
2023-03-26T21:16:32.704Z,51.87
2023-03-26T21:19:01.155Z,52.13
2023-03-26T21:21:57.733Z,52.02
2023-03-26T21:24:37.898Z,51.80
2023-03-26T21:27:31.076Z,50.99
2023-03-26T21:30:00.100Z,50.59
2023-03-26T21:32:30.137Z,49.98
2023-03-26T21:34:59.625Z,49.81
2023-03-26T21:37:28.530Z,50.35
2023-03-26T21:39:57.441Z,50.85
2023-03-26T21:42:29.443Z,50.87
2023-03-26T21:44:58.289Z,51.18
2023-03-26T21:47:27.175Z,51.76
2023-03-26T21:49:55.795Z,51.20
2023-03-26T21:52:25.427Z,50.74
2023-03-26T21:54:53.969Z,51.61
2023-03-26T21:57:54.164Z,52.03
2023-03-26T22:00:33.575Z,52.55
2023-03-26T22:03:42.188Z,51.10
2023-03-26T22:06:13.512Z,51.15
2023-03-26T22:08:43.140Z,51.25
2023-03-26T22:11:12.732Z,53.10
2023-03-26T22:13:40.922Z,52.49
2023-03-26T22:16:10.852Z,51.56
2023-03-26T22:18:39.336Z,51.81
2023-03-26T22:21:07.882Z,52.14
2023-03-26T22:23:38.483Z,53.01
2023-03-26T22:26:07.417Z,53.06
2023-03-26T22:28:36.653Z,52.05
2023-03-26T22:31:09.104Z,52.34
2023-03-26T22:33:40.160Z,52.90
2023-03-26T22:36:22.338Z,53.05
2023-03-26T22:38:55.334Z,52.51
2023-03-26T22:41:23.645Z,52.45
2023-03-26T22:43:56.837Z,52.89
2023-03-26T22:46:26.727Z,53.50
2023-03-26T22:48:57.090Z,53.24
2023-03-26T22:51:25.502Z,53.54
2023-03-26T22:53:53.604Z,53.34
2023-03-26T22:56:21.767Z,52.77
2023-03-26T22:58:49.964Z,52.67
2023-03-26T23:03:51.368Z,51.96
2023-03-26T23:06:19.602Z,51.47
2023-03-26T23:08:47.813Z,51.99
2023-03-26T23:11:22.144Z,52.01
2023-03-26T23:13:50.534Z,53.13
2023-03-26T23:16:20.326Z,53.11
2023-03-26T23:18:48.960Z,53.57
2023-03-26T23:21:22.137Z,53.46
2023-03-26T23:23:52.311Z,53.44
2023-03-26T23:26:21.575Z,53.23
2023-03-26T23:28:51.238Z,53.12
2023-03-26T23:31:19.600Z,52.74
2023-03-26T23:33:47.701Z,52.13
2023-03-26T23:36:18.606Z,52.05
2023-03-26T23:38:48.545Z,51.68
2023-03-26T23:41:21.721Z,50.91
2023-03-26T23:43:54.192Z,50.68
2023-03-26T23:46:30.860Z,50.41
2023-03-26T23:49:02.472Z,51.69
2023-03-26T23:51:32.375Z,51.71
2023-03-26T23:54:00.788Z,50.71
2023-03-26T23:56:32.448Z,50.60
2023-03-26T23:59:00.907Z,51.75
